Portada
METAR-TAF:

METAR-TAF

Aeroports :

Hawkins Field

Jackson, Mississipí, Estats Units d'Amèrica

latitud: 32-20-05N, longitud: 090-13-21W, altitud: 104 m

Observació

L'informe es va fer fa 11 minuts, a les 15:53 UTC
Vent 7 kt del Nord/Nord-Est, variant entre Nord i Est/Nord-Est
Temperatura 28°C
Humitat 40%
Pressió 1020 hPa
Visibilitat: 16.1 km
Cel clar

METAR: KHKS 301553Z 02007KT 350V060 10SM CLR 28/13 A3012 RMK AO2 SLP189 T02830133

Hora: 11:04 (16:04 UTC)

Pronòstic

L'informe es va fer fa 4 hores i 44 minuts, a les 11:20 UTC
Pronòstic vàlid del 30 a les 12 UTC al 31 a les 12 UTC
Vent 3 kt del Nord
Visibilitat: 10 km
Cel cobert a una alçada de 9000 ft

TAF: KHKS 301120Z 3012/3112 01003KT P6SM OVC090

Observacions i pronòstics meteorològics de més de 4000 aeroports (METAR i TAF).

Les estacions disponibles són els punts grocs i vermells al mapa.

Posi el ratolí al punt desitjat per veure el nom de l'estació.

Feu clic per veure les observacions i els pronòstics meteorològics.

Per canviar el mapa: feu clic els botons verds amb una creu de color negre per apropar; al botó verd amb un guió per allunyar la imatge; o en les fletxes verdes per a mapes adjacents.


METAR-TAF: